sensor_id;sensor_type;location;lat;lon;timestamp;P1;durP1;ratioP1;P2;durP2;ratioP2
9280;SDS011;4679;47.966;7.958;2023-02-12T07:44:23;2.67;;;2.03;;
9280;SDS011;4679;47.966;7.958;2023-02-12T07:46:26;2.03;;;1.60;;
9280;SDS011;4679;47.966;7.958;2023-02-12T07:48:30;1.50;;;1.40;;
9280;SDS011;4679;47.966;7.958;2023-02-12T07:50:31;1.73;;;1.53;;
9280;SDS011;4679;47.966;7.958;2023-02-12T07:52:33;1.60;;;1.50;;
9280;SDS011;4679;47.966;7.958;2023-02-12T07:54:35;2.10;;;1.63;;
9280;SDS011;4679;47.966;7.958;2023-02-12T07:56:37;3.60;;;1.83;;
9280;SDS011;4679;47.966;7.958;2023-02-12T07:58:40;4.73;;;1.33;;
9280;SDS011;4679;47.966;7.958;2023-02-12T08:00:46;2.30;;;1.90;;
9280;SDS011;4679;47.966;7.958;2023-02-12T08:02:50;2.77;;;1.70;;
9280;SDS011;4679;47.966;7.958;2023-02-12T08:04:54;2.17;;;1.67;;
9280;SDS011;4679;47.966;7.958;2023-02-12T08:06:56;2.63;;;1.30;;
9280;SDS011;4679;47.966;7.958;2023-02-12T08:08:58;2.10;;;1.60;;
9280;SDS011;4679;47.966;7.958;2023-02-12T08:11:01;1.97;;;1.40;;
9280;SDS011;4679;47.966;7.958;2023-02-12T08:13:03;2.07;;;1.73;;
9280;SDS011;4679;47.966;7.958;2023-02-12T08:15:04;2.67;;;1.90;;
9280;SDS011;4679;47.966;7.958;2023-02-12T08:17:08;3.83;;;2.20;;
9280;SDS011;4679;47.966;7.958;2023-02-12T08:19:10;3.57;;;2.17;;
9280;SDS011;4679;47.966;7.958;2023-02-12T08:21:13;4.07;;;1.73;;
9280;SDS011;4679;47.966;7.958;2023-02-12T08:23:17;3.47;;;2.20;;
9280;SDS011;4679;47.966;7.958;2023-02-12T08:25:18;3.17;;;2.20;;
9280;SDS011;4679;47.966;7.958;2023-02-12T08:27:20;2.20;;;2.00;;
9280;SDS011;4679;47.966;7.958;2023-02-12T08:29:22;2.67;;;2.40;;
9280;SDS011;4679;47.966;7.958;2023-02-12T08:31:26;3.07;;;2.13;;
9280;SDS011;4679;47.966;7.958;2023-02-12T08:33:30;3.30;;;2.40;;
9280;SDS011;4679;47.966;7.958;2023-02-12T08:35:32;5.27;;;2.30;;
9280;SDS011;4679;47.966;7.958;2023-02-12T08:37:34;2.77;;;1.80;;
9280;SDS011;4679;47.966;7.958;2023-02-12T08:39:35;3.07;;;1.83;;
9280;SDS011;4679;47.966;7.958;2023-02-12T08:41:37;2.93;;;2.30;;
9280;SDS011;4679;47.966;7.958;2023-02-12T08:43:41;2.03;;;1.73;;
9280;SDS011;4679;47.966;7.958;2023-02-12T08:45:44;3.63;;;2.23;;
9280;SDS011;4679;47.966;7.958;2023-02-12T08:47:46;4.30;;;1.80;;
9280;SDS011;4679;47.966;7.958;2023-02-12T08:49:49;2.17;;;1.70;;
9280;SDS011;4679;47.966;7.958;2023-02-12T08:51:52;2.70;;;1.87;;
9280;SDS011;4679;47.966;7.958;2023-02-12T08:53:56;3.37;;;2.00;;
9280;SDS011;4679;47.966;7.958;2023-02-12T08:55:58;4.07;;;2.80;;
9280;SDS011;4679;47.966;7.958;2023-02-12T08:58:00;3.40;;;2.67;;
9280;SDS011;4679;47.966;7.958;2023-02-12T09:00:03;4.53;;;4.03;;
9280;SDS011;4679;47.966;7.958;2023-02-12T09:02:05;2.77;;;2.30;;
9280;SDS011;4679;47.966;7.958;2023-02-12T09:04:09;1.93;;;1.73;;
9280;SDS011;4679;47.966;7.958;2023-02-12T09:06:16;3.33;;;2.00;;
9280;SDS011;4679;47.966;7.958;2023-02-12T09:08:20;2.50;;;2.20;;
9280;SDS011;4679;47.966;7.958;2023-02-12T09:10:22;4.33;;;2.23;;
9280;SDS011;4679;47.966;7.958;2023-02-12T09:12:23;3.80;;;1.93;;
9280;SDS011;4679;47.966;7.958;2023-02-12T09:14:25;3.23;;;2.20;;
9280;SDS011;4679;47.966;7.958;2023-02-12T09:16:28;2.80;;;2.53;;
9280;SDS011;4679;47.966;7.958;2023-02-12T09:18:31;3.63;;;2.60;;
9280;SDS011;4679;47.966;7.958;2023-02-12T09:20:34;6.60;;;4.80;;
9280;SDS011;4679;47.966;7.958;2023-02-12T09:22:40;6.03;;;5.03;;
9280;SDS011;4679;47.966;7.958;2023-02-12T09:24:41;7.50;;;3.60;;
9280;SDS011;4679;47.966;7.958;2023-02-12T09:26:43;4.37;;;3.47;;
9280;SDS011;4679;47.966;7.958;2023-02-12T09:28:45;4.87;;;3.53;;
9280;SDS011;4679;47.966;7.958;2023-02-12T09:30:47;5.83;;;4.17;;
9280;SDS011;4679;47.966;7.958;2023-02-12T09:32:49;10.10;;;7.17;;
9280;SDS011;4679;47.966;7.958;2023-02-12T09:34:51;6.17;;;3.73;;
9280;SDS011;4679;47.966;7.958;2023-02-12T09:36:52;3.13;;;2.40;;
9280;SDS011;4679;47.966;7.958;2023-02-12T09:38:55;3.47;;;3.07;;
9280;SDS011;4679;47.966;7.958;2023-02-12T09:41:06;2.93;;;2.60;;
9280;SDS011;4679;47.966;7.958;2023-02-12T09:43:27;2.47;;;2.23;;
9280;SDS011;4679;47.966;7.958;2023-02-12T09:45:37;6.83;;;4.40;;
9280;SDS011;4679;47.966;7.958;2023-02-12T09:47:46;3.23;;;2.13;;
9280;SDS011;4679;47.966;7.958;2023-02-12T09:49:59;4.20;;;2.70;;
9280;SDS011;4679;47.966;7.958;2023-02-12T09:52:12;3.40;;;3.03;;
9280;SDS011;4679;47.966;7.958;2023-02-12T09:54:18;5.57;;;3.80;;
9280;SDS011;4679;47.966;7.958;2023-02-12T09:56:22;5.37;;;4.23;;
9280;SDS011;4679;47.966;7.958;2023-02-12T09:58:28;6.17;;;4.10;;
9280;SDS011;4679;47.966;7.958;2023-02-12T10:00:34;6.20;;;4.33;;
9280;SDS011;4679;47.966;7.958;2023-02-12T10:02:36;4.87;;;4.23;;
9280;SDS011;4679;47.966;7.958;2023-02-12T10:04:40;5.03;;;4.23;;
9280;SDS011;4679;47.966;7.958;2023-02-12T10:06:43;6.37;;;4.67;;
9280;SDS011;4679;47.966;7.958;2023-02-12T10:11:37;5.67;;;4.37;;
9280;SDS011;4679;47.966;7.958;2023-02-12T10:13:49;7.13;;;4.30;;
9280;SDS011;4679;47.966;7.958;2023-02-12T10:15:56;4.03;;;3.37;;
9280;SDS011;4679;47.966;7.958;2023-02-12T10:18:09;5.00;;;3.30;;
9280;SDS011;4679;47.966;7.958;2023-02-12T10:20:25;8.00;;;4.50;;
9280;SDS011;4679;47.966;7.958;2023-02-12T10:22:41;9.60;;;6.57;;
9280;SDS011;4679;47.966;7.958;2023-02-12T10:24:55;10.40;;;6.83;;
9280;SDS011;4679;47.966;7.958;2023-02-12T10:27:10;9.07;;;7.33;;
9280;SDS011;4679;47.966;7.958;2023-02-12T10:29:15;9.00;;;7.43;;
9280;SDS011;4679;47.966;7.958;2023-02-12T10:31:20;9.23;;;7.23;;
9280;SDS011;4679;47.966;7.958;2023-02-12T10:33:29;10.23;;;8.03;;
9280;SDS011;4679;47.966;7.958;2023-02-12T10:35:34;10.70;;;9.30;;
9280;SDS011;4679;47.966;7.958;2023-02-12T10:37:37;12.73;;;9.13;;
9280;SDS011;4679;47.966;7.958;2023-02-12T10:39:46;11.80;;;9.47;;
9280;SDS011;4679;47.966;7.958;2023-02-12T10:41:54;16.30;;;10.80;;
9280;SDS011;4679;47.966;7.958;2023-02-12T10:44:01;14.37;;;10.10;;
9280;SDS011;4679;47.966;7.958;2023-02-12T10:46:03;13.50;;;9.87;;
9280;SDS011;4679;47.966;7.958;2023-02-12T10:48:07;12.00;;;9.33;;
9280;SDS011;4679;47.966;7.958;2023-02-12T10:50:14;17.67;;;11.60;;
9280;SDS011;4679;47.966;7.958;2023-02-12T10:52:20;12.93;;;10.53;;
9280;SDS011;4679;47.966;7.958;2023-02-12T10:54:37;16.57;;;11.53;;
9280;SDS011;4679;47.966;7.958;2023-02-12T10:56:41;14.30;;;11.90;;
9280;SDS011;4679;47.966;7.958;2023-02-12T10:58:51;14.13;;;11.60;;
9280;SDS011;4679;47.966;7.958;2023-02-12T11:00:55;16.70;;;12.20;;
9280;SDS011;4679;47.966;7.958;2023-02-12T11:03:03;15.87;;;12.37;;
9280;SDS011;4679;47.966;7.958;2023-02-12T11:05:21;17.07;;;11.60;;
9280;SDS011;4679;47.966;7.958;2023-02-12T11:07:24;13.80;;;11.30;;
9280;SDS011;4679;47.966;7.958;2023-02-12T11:09:28;14.90;;;11.43;;
9280;SDS011;4679;47.966;7.958;2023-02-12T11:11:36;14.37;;;11.73;;
9280;SDS011;4679;47.966;7.958;2023-02-12T11:13:39;16.37;;;11.93;;
9280;SDS011;4679;47.966;7.958;2023-02-12T11:15:46;13.73;;;11.10;;
9280;SDS011;4679;47.966;7.958;2023-02-12T11:17:54;13.90;;;11.17;;
9280;SDS011;4679;47.966;7.958;2023-02-12T11:20:01;15.17;;;12.07;;
9280;SDS011;4679;47.966;7.958;2023-02-12T11:23:31;17.57;;;12.70;;
9280;SDS011;4679;47.966;7.958;2023-02-12T11:25:34;15.00;;;11.73;;
9280;SDS011;4679;47.966;7.958;2023-02-12T11:27:37;16.97;;;12.00;;
9280;SDS011;4679;47.966;7.958;2023-02-12T11:29:39;12.70;;;10.50;;
9280;SDS011;4679;47.966;7.958;2023-02-12T11:31:41;13.23;;;11.00;;
9280;SDS011;4679;47.966;7.958;2023-02-12T11:33:43;13.23;;;11.20;;
9280;SDS011;4679;47.966;7.958;2023-02-12T11:35:49;13.23;;;9.93;;
9280;SDS011;4679;47.966;7.958;2023-02-12T11:37:52;15.83;;;11.80;;
9280;SDS011;4679;47.966;7.958;2023-02-12T11:39:58;12.03;;;9.83;;
9280;SDS011;4679;47.966;7.958;2023-02-12T11:42:00;12.27;;;10.03;;
9280;SDS011;4679;47.966;7.958;2023-02-12T11:44:07;13.23;;;10.33;;
9280;SDS011;4679;47.966;7.958;2023-02-12T11:46:16;14.57;;;11.73;;
9280;SDS011;4679;47.966;7.958;2023-02-12T11:48:22;14.60;;;10.93;;
9280;SDS011;4679;47.966;7.958;2023-02-12T11:50:28;12.30;;;10.67;;
9280;SDS011;4679;47.966;7.958;2023-02-12T11:52:32;13.40;;;10.93;;
9280;SDS011;4679;47.966;7.958;2023-02-12T11:54:37;12.10;;;10.13;;
9280;SDS011;4679;47.966;7.958;2023-02-12T11:56:43;11.30;;;9.90;;
9280;SDS011;4679;47.966;7.958;2023-02-12T11:58:47;12.97;;;10.80;;
9280;SDS011;4679;47.966;7.958;2023-02-12T12:00:50;12.37;;;10.00;;
9280;SDS011;4679;47.966;7.958;2023-02-12T12:03:00;14.47;;;11.47;;
9280;SDS011;4679;47.966;7.958;2023-02-12T12:05:12;10.70;;;9.57;;
9280;SDS011;4679;47.966;7.958;2023-02-12T12:07:17;13.83;;;10.00;;
9280;SDS011;4679;47.966;7.958;2023-02-12T12:09:25;11.40;;;10.00;;
9280;SDS011;4679;47.966;7.958;2023-02-12T12:11:33;13.77;;;10.20;;
9280;SDS011;4679;47.966;7.958;2023-02-12T12:13:43;10.70;;;9.63;;
9280;SDS011;4679;47.966;7.958;2023-02-12T12:15:51;13.73;;;10.77;;
9280;SDS011;4679;47.966;7.958;2023-02-12T12:18:20;12.17;;;10.20;;
9280;SDS011;4679;47.966;7.958;2023-02-12T12:20:49;12.47;;;10.00;;
9280;SDS011;4679;47.966;7.958;2023-02-12T12:22:56;11.63;;;9.97;;
9280;SDS011;4679;47.966;7.958;2023-02-12T12:25:07;16.13;;;11.53;;
9280;SDS011;4679;47.966;7.958;2023-02-12T12:27:15;12.80;;;10.57;;
9280;SDS011;4679;47.966;7.958;2023-02-12T12:29:48;13.73;;;9.90;;
9280;SDS011;4679;47.966;7.958;2023-02-12T12:31:56;15.13;;;10.50;;
9280;SDS011;4679;47.966;7.958;2023-02-12T12:34:02;13.73;;;10.53;;
9280;SDS011;4679;47.966;7.958;2023-02-12T12:38:51;12.47;;;10.20;;
9280;SDS011;4679;47.966;7.958;2023-02-12T12:41:03;14.17;;;10.10;;
9280;SDS011;4679;47.966;7.958;2023-02-12T12:43:14;12.57;;;10.13;;
9280;SDS011;4679;47.966;7.958;2023-02-12T12:45:31;14.17;;;10.93;;
9280;SDS011;4679;47.966;7.958;2023-02-12T12:47:50;12.13;;;10.07;;
9280;SDS011;4679;47.966;7.958;2023-02-12T12:50:08;10.03;;;9.03;;
9280;SDS011;4679;47.966;7.958;2023-02-12T12:52:32;10.97;;;9.80;;
9280;SDS011;4679;47.966;7.958;2023-02-12T12:55:13;13.17;;;9.80;;
9280;SDS011;4679;47.966;7.958;2023-02-12T12:57:28;13.27;;;9.33;;
9280;SDS011;4679;47.966;7.958;2023-02-12T13:02:30;11.73;;;8.83;;
9280;SDS011;4679;47.966;7.958;2023-02-12T13:04:55;11.30;;;9.07;;
9280;SDS011;4679;47.966;7.958;2023-02-12T13:07:25;9.00;;;8.13;;
9280;SDS011;4679;47.966;7.958;2023-02-12T13:09:36;9.87;;;8.57;;
9280;SDS011;4679;47.966;7.958;2023-02-12T13:11:51;8.90;;;8.00;;
9280;SDS011;4679;47.966;7.958;2023-02-12T13:14:05;9.53;;;8.50;;
9280;SDS011;4679;47.966;7.958;2023-02-12T13:16:19;9.77;;;8.60;;
9280;SDS011;4679;47.966;7.958;2023-02-12T13:18:27;10.40;;;8.37;;
9280;SDS011;4679;47.966;7.958;2023-02-12T13:20:44;11.50;;;8.17;;
9280;SDS011;4679;47.966;7.958;2023-02-12T13:22:51;8.70;;;7.80;;
9280;SDS011;4679;47.966;7.958;2023-02-12T13:24:59;9.60;;;7.80;;
9280;SDS011;4679;47.966;7.958;2023-02-12T13:27:06;8.80;;;7.90;;
9280;SDS011;4679;47.966;7.958;2023-02-12T13:29:15;9.40;;;7.67;;
9280;SDS011;4679;47.966;7.958;2023-02-12T13:31:20;10.27;;;7.97;;
9280;SDS011;4679;47.966;7.958;2023-02-12T13:33:26;12.07;;;8.40;;
9280;SDS011;4679;47.966;7.958;2023-02-12T13:35:40;8.93;;;8.03;;
9280;SDS011;4679;47.966;7.958;2023-02-12T13:37:46;10.97;;;8.60;;
9280;SDS011;4679;47.966;7.958;2023-02-12T13:39:51;7.77;;;7.00;;
9280;SDS011;4679;47.966;7.958;2023-02-12T13:41:57;8.10;;;7.30;;
9280;SDS011;4679;47.966;7.958;2023-02-12T13:44:06;8.20;;;6.77;;
9280;SDS011;4679;47.966;7.958;2023-02-12T13:46:22;7.90;;;7.00;;
9280;SDS011;4679;47.966;7.958;2023-02-12T13:48:34;7.07;;;6.40;;
9280;SDS011;4679;47.966;7.958;2023-02-12T13:50:44;8.30;;;7.60;;
9280;SDS011;4679;47.966;7.958;2023-02-12T13:52:55;8.73;;;7.33;;
9280;SDS011;4679;47.966;7.958;2023-02-12T13:55:03;7.27;;;6.57;;
9280;SDS011;4679;47.966;7.958;2023-02-12T13:57:15;7.20;;;6.17;;
9280;SDS011;4679;47.966;7.958;2023-02-12T14:01:43;6.87;;;5.57;;
9280;SDS011;4679;47.966;7.958;2023-02-12T14:03:49;6.60;;;5.23;;
9280;SDS011;4679;47.966;7.958;2023-02-12T14:06:05;5.97;;;5.40;;
9280;SDS011;4679;47.966;7.958;2023-02-12T14:08:20;5.87;;;4.87;;
9280;SDS011;4679;47.966;7.958;2023-02-12T14:10:35;5.07;;;4.53;;
9280;SDS011;4679;47.966;7.958;2023-02-12T14:12:38;6.13;;;5.53;;
9280;SDS011;4679;47.966;7.958;2023-02-12T14:14:42;5.67;;;5.17;;
9280;SDS011;4679;47.966;7.958;2023-02-12T14:16:46;6.70;;;6.10;;
9280;SDS011;4679;47.966;7.958;2023-02-12T14:18:49;5.70;;;4.73;;
9280;SDS011;4679;47.966;7.958;2023-02-12T14:23:40;6.40;;;5.80;;
9280;SDS011;4679;47.966;7.958;2023-02-12T14:25:43;6.00;;;5.40;;
9280;SDS011;4679;47.966;7.958;2023-02-12T14:27:47;6.00;;;5.40;;
9280;SDS011;4679;47.966;7.958;2023-02-12T14:30:00;6.37;;;5.53;;
9280;SDS011;4679;47.966;7.958;2023-02-12T14:37:35;6.30;;;5.63;;
9280;SDS011;4679;47.966;7.958;2023-02-12T14:39:37;6.10;;;5.13;;
9280;SDS011;4679;47.966;7.958;2023-02-12T14:41:39;8.90;;;6.13;;
9280;SDS011;4679;47.966;7.958;2023-02-12T14:43:43;6.97;;;6.03;;
9280;SDS011;4679;47.966;7.958;2023-02-12T14:48:49;7.17;;;6.33;;
9280;SDS011;4679;47.966;7.958;2023-02-12T14:50:55;6.40;;;5.83;;
9280;SDS011;4679;47.966;7.958;2023-02-12T14:52:59;6.63;;;6.03;;
9280;SDS011;4679;47.966;7.958;2023-02-12T14:55:06;7.30;;;6.60;;
9280;SDS011;4679;47.966;7.958;2023-02-12T14:57:22;10.47;;;7.00;;
9280;SDS011;4679;47.966;7.958;2023-02-12T14:59:26;6.27;;;5.67;;
9280;SDS011;4679;47.966;7.958;2023-02-12T15:01:32;7.30;;;6.60;;
9280;SDS011;4679;47.966;7.958;2023-02-12T15:03:38;6.93;;;6.23;;
9280;SDS011;4679;47.966;7.958;2023-02-12T15:05:46;7.10;;;6.43;;
9280;SDS011;4679;47.966;7.958;2023-02-12T15:07:54;7.50;;;6.90;;
9280;SDS011;4679;47.966;7.958;2023-02-12T15:09:59;6.93;;;6.33;;
9280;SDS011;4679;47.966;7.958;2023-02-12T15:12:09;8.67;;;7.30;;
9280;SDS011;4679;47.966;7.958;2023-02-12T15:14:18;8.33;;;6.70;;
9280;SDS011;4679;47.966;7.958;2023-02-12T15:16:30;7.10;;;6.40;;
9280;SDS011;4679;47.966;7.958;2023-02-12T15:18:41;7.97;;;7.13;;
9280;SDS011;4679;47.966;7.958;2023-02-12T15:20:49;9.93;;;7.53;;
9280;SDS011;4679;47.966;7.958;2023-02-12T15:22:56;10.80;;;9.10;;
9280;SDS011;4679;47.966;7.958;2023-02-12T15:27:14;6.27;;;5.67;;
9280;SDS011;4679;47.966;7.958;2023-02-12T15:29:18;7.13;;;6.43;;
9280;SDS011;4679;47.966;7.958;2023-02-12T15:31:24;7.07;;;6.33;;
9280;SDS011;4679;47.966;7.958;2023-02-12T15:33:30;7.40;;;6.70;;
9280;SDS011;4679;47.966;7.958;2023-02-12T15:35:33;8.57;;;6.53;;
9280;SDS011;4679;47.966;7.958;2023-02-12T15:37:37;8.20;;;6.53;;
9280;SDS011;4679;47.966;7.958;2023-02-12T15:39:42;6.87;;;6.17;;
9280;SDS011;4679;47.966;7.958;2023-02-12T15:41:45;7.03;;;6.03;;
9280;SDS011;4679;47.966;7.958;2023-02-12T15:43:47;10.03;;;6.77;;
9280;SDS011;4679;47.966;7.958;2023-02-12T15:45:50;6.57;;;5.90;;
9280;SDS011;4679;47.966;7.958;2023-02-12T15:47:58;7.43;;;5.70;;
9280;SDS011;4679;47.966;7.958;2023-02-12T15:50:02;6.43;;;5.80;;
9280;SDS011;4679;47.966;7.958;2023-02-12T15:52:06;6.73;;;6.03;;
9280;SDS011;4679;47.966;7.958;2023-02-12T15:54:11;6.70;;;5.53;;
9280;SDS011;4679;47.966;7.958;2023-02-12T15:56:21;5.10;;;4.60;;
9280;SDS011;4679;47.966;7.958;2023-02-12T15:58:25;9.60;;;6.20;;
9280;SDS011;4679;47.966;7.958;2023-02-12T16:00:31;5.27;;;4.77;;
9280;SDS011;4679;47.966;7.958;2023-02-12T16:02:39;8.67;;;5.87;;
9280;SDS011;4679;47.966;7.958;2023-02-12T16:04:41;5.57;;;4.87;;
9280;SDS011;4679;47.966;7.958;2023-02-12T16:06:44;6.30;;;5.07;;
9280;SDS011;4679;47.966;7.958;2023-02-12T16:08:46;5.33;;;4.90;;
9280;SDS011;4679;47.966;7.958;2023-02-12T16:10:51;9.70;;;5.70;;
9280;SDS011;4679;47.966;7.958;2023-02-12T16:12:55;6.90;;;5.37;;
9280;SDS011;4679;47.966;7.958;2023-02-12T16:14:57;7.33;;;5.93;;
9280;SDS011;4679;47.966;7.958;2023-02-12T16:17:00;12.13;;;8.03;;
9280;SDS011;4679;47.966;7.958;2023-02-12T16:19:03;7.20;;;6.20;;
9280;SDS011;4679;47.966;7.958;2023-02-12T16:21:09;7.70;;;6.00;;
9280;SDS011;4679;47.966;7.958;2023-02-12T16:23:13;6.87;;;6.27;;
9280;SDS011;4679;47.966;7.958;2023-02-12T16:25:15;6.53;;;5.40;;
9280;SDS011;4679;47.966;7.958;2023-02-12T16:27:19;5.80;;;4.57;;
9280;SDS011;4679;47.966;7.958;2023-02-12T16:29:24;6.40;;;5.67;;
9280;SDS011;4679;47.966;7.958;2023-02-12T16:31:26;5.90;;;5.27;;
9280;SDS011;4679;47.966;7.958;2023-02-12T16:33:31;6.40;;;5.17;;
9280;SDS011;4679;47.966;7.958;2023-02-12T16:35:35;6.40;;;4.83;;
9280;SDS011;4679;47.966;7.958;2023-02-12T16:37:41;5.13;;;4.63;;
9280;SDS011;4679;47.966;7.958;2023-02-12T16:42:22;7.33;;;5.93;;
9280;SDS011;4679;47.966;7.958;2023-02-12T16:44:30;5.27;;;4.67;;
9280;SDS011;4679;47.966;7.958;2023-02-12T16:46:43;5.37;;;4.40;;
9280;SDS011;4679;47.966;7.958;2023-02-12T16:48:46;5.20;;;4.70;;
9280;SDS011;4679;47.966;7.958;2023-02-12T16:50:52;6.53;;;5.20;;
9280;SDS011;4679;47.966;7.958;2023-02-12T16:52:58;6.77;;;5.30;;
9280;SDS011;4679;47.966;7.958;2023-02-12T16:55:01;6.70;;;6.07;;
9280;SDS011;4679;47.966;7.958;2023-02-12T16:57:03;8.23;;;6.57;;
9280;SDS011;4679;47.966;7.958;2023-02-12T16:59:04;8.30;;;6.07;;
9280;SDS011;4679;47.966;7.958;2023-02-12T17:01:07;8.00;;;6.13;;
9280;SDS011;4679;47.966;7.958;2023-02-12T17:03:09;9.90;;;6.10;;
9280;SDS011;4679;47.966;7.958;2023-02-12T17:05:14;14.60;;;5.20;;
9280;SDS011;4679;47.966;7.958;2023-02-12T17:07:18;6.80;;;5.93;;
9280;SDS011;4679;47.966;7.958;2023-02-12T17:09:21;5.63;;;4.27;;
9280;SDS011;4679;47.966;7.958;2023-02-12T17:11:23;5.17;;;4.67;;
9280;SDS011;4679;47.966;7.958;2023-02-12T17:13:26;8.23;;;5.57;;
9280;SDS011;4679;47.966;7.958;2023-02-12T17:15:29;5.67;;;5.07;;
9280;SDS011;4679;47.966;7.958;2023-02-12T17:17:35;7.30;;;5.30;;
9280;SDS011;4679;47.966;7.958;2023-02-12T17:19:36;6.70;;;5.77;;
9280;SDS011;4679;47.966;7.958;2023-02-12T17:21:39;9.40;;;5.90;;
9280;SDS011;4679;47.966;7.958;2023-02-12T17:23:43;9.43;;;6.53;;
9280;SDS011;4679;47.966;7.958;2023-02-12T17:25:44;11.50;;;6.73;;
9280;SDS011;4679;47.966;7.958;2023-02-12T17:27:46;10.63;;;6.40;;
9280;SDS011;4679;47.966;7.958;2023-02-12T17:29:48;10.93;;;7.37;;
9280;SDS011;4679;47.966;7.958;2023-02-12T17:31:49;13.47;;;9.50;;
9280;SDS011;4679;47.966;7.958;2023-02-12T17:33:55;19.17;;;10.87;;
9280;SDS011;4679;47.966;7.958;2023-02-12T17:35:57;18.00;;;11.23;;
9280;SDS011;4679;47.966;7.958;2023-02-12T17:37:59;17.50;;;10.30;;
9280;SDS011;4679;47.966;7.958;2023-02-12T17:40:00;14.50;;;10.10;;
9280;SDS011;4679;47.966;7.958;2023-02-12T17:42:02;17.70;;;9.47;;
9280;SDS011;4679;47.966;7.958;2023-02-12T17:44:05;12.57;;;9.40;;
9280;SDS011;4679;47.966;7.958;2023-02-12T17:46:07;14.73;;;9.77;;
9280;SDS011;4679;47.966;7.958;2023-02-12T17:48:12;16.83;;;9.57;;
9280;SDS011;4679;47.966;7.958;2023-02-12T17:50:16;19.90;;;11.13;;
9280;SDS011;4679;47.966;7.958;2023-02-12T17:52:18;19.13;;;12.23;;
9280;SDS011;4679;47.966;7.958;2023-02-12T17:54:20;22.60;;;12.37;;
9280;SDS011;4679;47.966;7.958;2023-02-12T17:56:22;18.60;;;12.47;;
9280;SDS011;4679;47.966;7.958;2023-02-12T17:58:25;21.90;;;12.23;;
9280;SDS011;4679;47.966;7.958;2023-02-12T18:00:26;17.03;;;12.17;;
9280;SDS011;4679;47.966;7.958;2023-02-12T18:02:29;19.03;;;12.60;;
9280;SDS011;4679;47.966;7.958;2023-02-12T18:04:30;18.63;;;13.00;;
9280;SDS011;4679;47.966;7.958;2023-02-12T18:06:36;20.57;;;13.50;;
9280;SDS011;4679;47.966;7.958;2023-02-12T18:08:38;19.30;;;12.37;;
9280;SDS011;4679;47.966;7.958;2023-02-12T18:10:40;15.77;;;11.30;;
9280;SDS011;4679;47.966;7.958;2023-02-12T18:12:42;18.30;;;12.80;;
9280;SDS011;4679;47.966;7.958;2023-02-12T18:14:44;18.13;;;12.60;;
9280;SDS011;4679;47.966;7.958;2023-02-12T18:16:45;18.03;;;13.00;;
9280;SDS011;4679;47.966;7.958;2023-02-12T18:18:47;17.03;;;12.20;;
9280;SDS011;4679;47.966;7.958;2023-02-12T18:20:49;9.60;;;7.17;;
9280;SDS011;4679;47.966;7.958;2023-02-12T18:22:52;14.50;;;9.90;;
9280;SDS011;4679;47.966;7.958;2023-02-12T18:24:54;9.03;;;7.20;;
9280;SDS011;4679;47.966;7.958;2023-02-12T18:26:56;9.83;;;7.83;;
9280;SDS011;4679;47.966;7.958;2023-02-12T18:28:58;14.13;;;9.57;;
9280;SDS011;4679;47.966;7.958;2023-02-12T18:31:00;12.70;;;9.20;;
9280;SDS011;4679;47.966;7.958;2023-02-12T18:33:02;12.23;;;9.60;;
9280;SDS011;4679;47.966;7.958;2023-02-12T18:35:04;13.13;;;9.60;;
9280;SDS011;4679;47.966;7.958;2023-02-12T18:37:07;10.27;;;8.30;;
9280;SDS011;4679;47.966;7.958;2023-02-12T18:39:11;11.33;;;9.17;;
9280;SDS011;4679;47.966;7.958;2023-02-12T18:41:13;10.47;;;8.20;;
9280;SDS011;4679;47.966;7.958;2023-02-12T18:43:16;11.13;;;8.27;;
9280;SDS011;4679;47.966;7.958;2023-02-12T18:45:18;9.03;;;8.03;;
9280;SDS011;4679;47.966;7.958;2023-02-12T18:47:20;10.37;;;7.67;;
9280;SDS011;4679;47.966;7.958;2023-02-12T18:49:22;8.37;;;7.47;;
9280;SDS011;4679;47.966;7.958;2023-02-12T18:51:24;13.37;;;8.83;;
9280;SDS011;4679;47.966;7.958;2023-02-12T18:53:27;12.40;;;8.93;;
9280;SDS011;4679;47.966;7.958;2023-02-12T18:55:30;13.37;;;9.03;;
9280;SDS011;4679;47.966;7.958;2023-02-12T18:57:32;11.27;;;9.80;;
9280;SDS011;4679;47.966;7.958;2023-02-12T18:59:34;12.90;;;10.53;;
9280;SDS011;4679;47.966;7.958;2023-02-12T19:01:36;15.13;;;11.67;;
9280;SDS011;4679;47.966;7.958;2023-02-12T19:03:38;20.97;;;14.60;;
9280;SDS011;4679;47.966;7.958;2023-02-12T19:05:39;16.80;;;12.60;;
9280;SDS011;4679;47.966;7.958;2023-02-12T19:07:41;16.20;;;12.47;;
9280;SDS011;4679;47.966;7.958;2023-02-12T19:09:43;15.47;;;11.27;;
9280;SDS011;4679;47.966;7.958;2023-02-12T19:11:46;15.30;;;11.87;;
9280;SDS011;4679;47.966;7.958;2023-02-12T19:13:49;15.40;;;10.90;;
9280;SDS011;4679;47.966;7.958;2023-02-12T19:15:51;16.50;;;12.47;;
9280;SDS011;4679;47.966;7.958;2023-02-12T19:17:53;15.00;;;12.23;;
9280;SDS011;4679;47.966;7.958;2023-02-12T19:19:54;15.33;;;11.47;;
9280;SDS011;4679;47.966;7.958;2023-02-12T19:21:56;15.30;;;11.37;;
9280;SDS011;4679;47.966;7.958;2023-02-12T19:23:58;14.90;;;11.00;;
9280;SDS011;4679;47.966;7.958;2023-02-12T19:26:02;14.40;;;11.77;;
9280;SDS011;4679;47.966;7.958;2023-02-12T19:28:06;16.70;;;12.37;;
9280;SDS011;4679;47.966;7.958;2023-02-12T19:30:08;20.53;;;14.27;;
9280;SDS011;4679;47.966;7.958;2023-02-12T19:32:10;14.37;;;11.70;;
9280;SDS011;4679;47.966;7.958;2023-02-12T19:34:12;12.53;;;10.20;;
9280;SDS011;4679;47.966;7.958;2023-02-12T19:36:17;12.53;;;9.13;;
9280;SDS011;4679;47.966;7.958;2023-02-12T19:38:19;14.43;;;10.07;;
9280;SDS011;4679;47.966;7.958;2023-02-12T19:40:21;9.13;;;7.00;;
9280;SDS011;4679;47.966;7.958;2023-02-12T19:42:22;13.80;;;7.87;;
9280;SDS011;4679;47.966;7.958;2023-02-12T19:44:25;12.63;;;8.77;;
9280;SDS011;4679;47.966;7.958;2023-02-12T19:46:28;8.47;;;7.10;;
9280;SDS011;4679;47.966;7.958;2023-02-12T19:48:31;10.17;;;7.73;;
9280;SDS011;4679;47.966;7.958;2023-02-12T19:50:32;10.10;;;7.30;;
9280;SDS011;4679;47.966;7.958;2023-02-12T19:52:34;10.07;;;7.20;;
9280;SDS011;4679;47.966;7.958;2023-02-12T19:54:36;9.20;;;6.70;;
9280;SDS011;4679;47.966;7.958;2023-02-12T19:56:38;7.83;;;5.97;;
9280;SDS011;4679;47.966;7.958;2023-02-12T19:58:40;7.80;;;6.77;;
9280;SDS011;4679;47.966;7.958;2023-02-12T20:00:44;13.90;;;8.90;;
9280;SDS011;4679;47.966;7.958;2023-02-12T20:02:46;9.83;;;8.53;;
9280;SDS011;4679;47.966;7.958;2023-02-12T20:04:47;8.40;;;6.53;;
9280;SDS011;4679;47.966;7.958;2023-02-12T20:06:49;10.27;;;6.83;;
9280;SDS011;4679;47.966;7.958;2023-02-12T20:08:51;6.27;;;5.23;;
9280;SDS011;4679;47.966;7.958;2023-02-12T20:10:53;7.17;;;5.10;;
9280;SDS011;4679;47.966;7.958;2023-02-12T20:12:55;6.67;;;5.33;;
9280;SDS011;4679;47.966;7.958;2023-02-12T20:14:56;5.87;;;5.20;;
9280;SDS011;4679;47.966;7.958;2023-02-12T20:17:01;8.77;;;4.93;;
9280;SDS011;4679;47.966;7.958;2023-02-12T20:19:04;8.13;;;5.83;;
9280;SDS011;4679;47.966;7.958;2023-02-12T20:21:09;8.40;;;5.87;;
9280;SDS011;4679;47.966;7.958;2023-02-12T20:23:11;10.40;;;7.57;;
9280;SDS011;4679;47.966;7.958;2023-02-12T20:25:12;17.33;;;11.40;;
9280;SDS011;4679;47.966;7.958;2023-02-12T20:27:14;12.53;;;8.80;;
9280;SDS011;4679;47.966;7.958;2023-02-12T20:29:16;13.97;;;9.80;;
9280;SDS011;4679;47.966;7.958;2023-02-12T20:31:19;10.73;;;8.47;;
9280;SDS011;4679;47.966;7.958;2023-02-12T20:33:23;13.87;;;8.87;;
9280;SDS011;4679;47.966;7.958;2023-02-12T20:35:25;20.10;;;11.07;;
9280;SDS011;4679;47.966;7.958;2023-02-12T20:37:28;17.57;;;11.03;;
9280;SDS011;4679;47.966;7.958;2023-02-12T20:39:30;21.87;;;13.07;;
9280;SDS011;4679;47.966;7.958;2023-02-12T20:41:33;18.30;;;11.87;;
9280;SDS011;4679;47.966;7.958;2023-02-12T20:43:36;19.10;;;11.03;;
9280;SDS011;4679;47.966;7.958;2023-02-12T20:45:38;21.63;;;11.30;;
9280;SDS011;4679;47.966;7.958;2023-02-12T20:47:40;19.67;;;12.60;;
9280;SDS011;4679;47.966;7.958;2023-02-12T20:49:43;14.57;;;10.63;;
9280;SDS011;4679;47.966;7.958;2023-02-12T20:51:47;14.37;;;8.37;;
9280;SDS011;4679;47.966;7.958;2023-02-12T20:53:50;11.23;;;7.13;;
9280;SDS011;4679;47.966;7.958;2023-02-12T20:55:53;6.37;;;5.63;;
9280;SDS011;4679;47.966;7.958;2023-02-12T20:57:54;6.47;;;5.07;;
9280;SDS011;4679;47.966;7.958;2023-02-12T20:59:56;6.17;;;4.60;;
9280;SDS011;4679;47.966;7.958;2023-02-12T21:01:58;6.07;;;5.00;;